Time;durP1;ratioP1;P1;durP2;ratioP2;P2;SDS_P1;SDS_P2;PMS_P1;PMS_P2;Temp;Humidity;BMP_temperature;BMP_pressure;BME280_temperature;BME280_humidity;BME280_pressure;Samples;Min_cycle;Max_cycle;Signal;HPM_P1;HPM_P2
2021/12/24 00:01:03;;;;;;;43.47;22.95;;;-0.10;99.90;;;;;;5061030;28;20028;-72
2021/12/24 00:03:29;;;;;;;43.35;24.02;;;-0.20;99.90;;;;;;5060217;28;20024;-72
2021/12/24 00:05:56;;;;;;;44.90;23.85;;;-0.20;99.90;;;;;;5065534;28;20062;-71
2021/12/24 00:08:21;;;;;;;;;;;-0.20;99.90;;;;;;5061174;28;20085;-72
2021/12/24 00:10:56;;;;;;;43.05;22.08;;;-0.10;99.90;;;;;;5066321;28;19916;-72
2021/12/24 00:13:22;;;;;;;46.15;22.52;;;-0.20;99.90;;;;;;5060121;28;20082;-72
2021/12/24 00:18:46;;;;;;;46.20;23.58;;;-0.20;99.90;;;;;;5057093;28;20385;-72
2021/12/24 00:37:24;;;;;;;45.55;24.88;;;-0.30;99.90;;;;;;5057733;28;20051;-72
2021/12/24 00:40:17;;;;;;;44.03;24.52;;;-0.30;99.90;;;;;;5063576;28;20052;-72
2021/12/24 00:42:43;;;;;;;49.67;24.52;;;-0.40;99.90;;;;;;5059769;28;20036;-72
2021/12/24 00:45:14;;;;;;;51.45;24.27;;;-0.40;99.90;;;;;;5065042;28;20086;-72
2021/12/24 00:47:40;;;;;;;45.75;24.80;;;-0.40;99.90;;;;;;5067598;28;20016;-72
2021/12/24 00:50:10;;;;;;;46.20;24.15;;;-0.40;99.90;;;;;;5060678;28;20053;-72
2021/12/24 00:52:52;;;;;;;45.17;23.15;;;-0.30;99.90;;;;;;5061959;28;20024;-72
2021/12/24 00:55:21;;;;;;;45.88;24.02;;;-0.30;99.90;;;;;;5059740;28;20703;-72
2021/12/24 00:57:54;;;;;;;50.53;25.27;;;-0.20;99.90;;;;;;5064437;28;20437;-72
2021/12/24 01:00:33;;;;;;;49.80;23.55;;;-0.10;99.90;;;;;;5062235;28;20020;-72
2021/12/24 01:03:05;;;;;;;33.65;16.00;;;0.10;99.90;;;;;;5065699;28;20571;-72
2021/12/24 01:05:34;;;;;;;29.08;15.75;;;0.50;99.90;;;;;;5057274;28;20032;-71
2021/12/24 01:08:00;;;;;;;24.92;12.50;;;0.90;99.90;;;;;;5064743;28;20024;-72
2021/12/24 01:10:30;;;;;;;22.25;9.77;;;1.30;99.90;;;;;;5058682;28;20016;-72
2021/12/24 01:12:57;;;;;;;24.15;10.05;;;1.80;99.90;;;;;;5062336;28;20083;-72
2021/12/24 01:15:31;;;;;;;19.60;9.93;;;2.40;99.90;;;;;;5058135;28;20481;-72
2021/12/24 01:18:25;;;;;;;20.30;9.13;;;2.80;99.90;;;;;;5064524;28;20063;-72
2021/12/24 01:21:02;;;;;;;14.25;7.80;;;3.20;99.90;;;;;;5061925;28;20053;-72
2021/12/24 01:26:00;;;;;;;16.37;7.40;;;3.90;99.90;;;;;;5066809;28;20047;-72
2021/12/24 01:44:28;;;;;;;15.48;6.30;;;5.00;99.90;;;;;;5059954;28;20043;-73
2021/12/24 01:46:56;;;;;;;14.07;6.35;;;5.10;99.90;;;;;;5061294;28;20081;-72
2021/12/24 01:49:22;;;;;;;10.20;5.93;;;5.20;99.90;;;;;;5057780;28;20031;-73
2021/12/24 01:51:47;;;;;;;10.63;5.73;;;5.20;99.90;;;;;;5064072;28;20050;-73
2021/12/24 01:54:13;;;;;;;10.07;5.57;;;5.30;99.90;;;;;;5058984;28;20465;-73
2021/12/24 01:56:39;;;;;;;14.10;6.63;;;5.40;99.90;;;;;;5063036;28;20114;-72
2021/12/24 01:59:06;;;;;;;12.33;6.37;;;5.40;99.90;;;;;;5062330;28;20030;-73
2021/12/24 02:01:32;;;;;;;16.17;6.43;;;5.50;99.90;;;;;;5058869;28;20390;-73
2021/12/24 02:03:59;;;;;;;12.27;7.22;;;5.60;99.90;;;;;;5061474;28;20389;-73
2021/12/24 02:06:28;;;;;;;12.55;6.63;;;5.60;99.90;;;;;;5053722;28;20073;-73
2021/12/24 02:08:54;;;;;;;11.60;6.28;;;5.70;99.90;;;;;;5060832;28;20055;-72
2021/12/24 02:11:24;;;;;;;11.80;5.97;;;5.70;99.90;;;;;;5059583;28;20051;-73
2021/12/24 02:13:52;;;;;;;10.43;5.53;;;5.80;99.90;;;;;;5066471;28;20027;-72
2021/12/24 02:30:05;;;;;;;11.85;5.88;;;6.10;99.90;;;;;;5061299;28;20031;-73
2021/12/24 02:32:31;;;;;;;10.32;5.07;;;6.20;99.90;;;;;;5058619;28;20020;-72
2021/12/24 02:34:57;;;;;;;10.90;5.30;;;6.30;99.90;;;;;;5061361;28;20029;-72
2021/12/24 02:37:24;;;;;;;13.98;5.82;;;6.40;99.90;;;;;;5063792;28;21042;-72
2021/12/24 02:39:51;;;;;;;9.50;4.85;;;6.40;99.90;;;;;;5062828;28;20028;-72
2021/12/24 02:42:21;;;;;;;11.80;5.00;;;6.40;99.90;;;;;;5059155;28;20564;-73
2021/12/24 02:44:49;;;;;;;10.52;5.00;;;6.40;99.90;;;;;;5060514;28;20040;-72
2021/12/24 02:55:00;;;;;;;7.00;4.28;;;6.90;99.90;;;;;;5062415;28;20090;-72
2021/12/24 02:57:28;;;;;;;12.25;5.05;;;6.90;99.90;;;;;;5058397;28;20029;-72
2021/12/24 03:00:06;;;;;;;8.68;4.85;;;6.90;99.90;;;;;;5058366;28;20360;-72
2021/12/24 03:02:34;;;;;;;7.80;4.68;;;7.00;99.90;;;;;;5056459;28;20077;-73
2021/12/24 03:05:01;;;;;;;8.60;4.20;;;7.00;99.90;;;;;;5056775;28;20644;-72
2021/12/24 03:07:27;;;;;;;14.65;4.40;;;7.10;99.90;;;;;;5063029;28;20020;-72
2021/12/24 03:09:53;;;;;;;7.22;4.40;;;7.20;99.90;;;;;;5068312;28;20024;-72
2021/12/24 03:12:20;;;;;;;8.13;4.38;;;7.20;99.90;;;;;;5059412;28;20124;-72
2021/12/24 03:14:47;;;;;;;8.65;4.10;;;7.30;99.90;;;;;;5060926;28;20021;-73
2021/12/24 03:17:19;;;;;;;;;;;7.30;99.90;;;;;;5063562;28;20069;-72
2021/12/24 03:19:44;;;;;;;9.65;4.68;;;7.40;99.90;;;;;;5062920;28;19930;-73
2021/12/24 03:22:31;;;;;;;10.60;4.70;;;7.40;99.90;;;;;;5065619;28;20016;-72
2021/12/24 03:24:59;;;;;;;7.55;4.13;;;7.40;99.90;;;;;;5060353;28;20031;-72
2021/12/24 03:27:24;;;;;;;7.57;4.45;;;7.40;99.90;;;;;;5063698;28;20024;-72
2021/12/24 03:29:51;;;;;;;9.03;4.87;;;7.40;99.90;;;;;;5060272;28;20129;-72
2021/12/24 03:32:18;;;;;;;8.10;4.82;;;7.40;99.90;;;;;;5067089;28;20032;-72
2021/12/24 03:34:43;;;;;;;;;;;7.40;99.90;;;;;;5065960;28;20046;-72
2021/12/24 03:37:09;;;;;;;8.73;4.65;;;7.30;99.90;;;;;;5063567;28;19904;-72
2021/12/24 03:39:41;;;;;;;8.80;5.17;;;7.30;99.90;;;;;;5068107;28;20039;-72
2021/12/24 03:42:07;;;;;;;8.38;5.18;;;7.30;99.90;;;;;;5063000;28;20024;-72
2021/12/24 03:44:42;;;;;;;7.78;4.70;;;7.30;99.90;;;;;;5067727;28;20024;-72
2021/12/24 03:47:14;;;;;;;9.95;5.63;;;7.30;99.90;;;;;;5059447;28;20059;-73
2021/12/24 03:50:06;;;;;;;11.00;6.22;;;7.20;99.90;;;;;;5065178;28;20096;-72
2021/12/24 03:54:56;;;;;;;10.82;6.05;;;7.10;99.90;;;;;;5059531;28;20082;-72
2021/12/24 03:57:24;;;;;;;9.93;5.88;;;7.10;99.90;;;;;;5069262;28;20107;-72
2021/12/24 03:59:53;;;;;;;11.07;6.47;;;7.00;99.90;;;;;;5058467;28;20085;-72
2021/12/24 04:02:20;;;;;;;10.70;6.10;;;7.00;99.90;;;;;;5061065;28;20032;-72
2021/12/24 04:04:46;;;;;;;10.15;5.60;;;6.90;99.90;;;;;;5062580;28;20028;-72
2021/12/24 04:07:13;;;;;;;9.25;5.85;;;6.90;99.90;;;;;;5060177;28;20021;-72
2021/12/24 04:09:48;;;;;;;11.10;6.20;;;6.90;99.90;;;;;;5066209;28;20023;-72
2021/12/24 04:12:16;;;;;;;13.88;5.72;;;6.90;99.90;;;;;;5065654;28;20024;-73
2021/12/24 04:14:42;;;;;;;9.57;5.82;;;6.90;99.90;;;;;;5067722;28;20679;-72
2021/12/24 04:17:09;;;;;;;10.70;5.83;;;6.90;99.90;;;;;;5060877;28;20032;-72
2021/12/24 04:24:51;;;;;;;12.55;5.75;;;6.80;99.90;;;;;;5062568;28;20339;-72
2021/12/24 04:25:06;;;;;;;10.57;6.40;;;6.80;99.90;;;;;;5063435;28;20121;-72
2021/12/24 04:27:33;;;;;;;9.73;5.67;;;6.80;99.90;;;;;;5065259;28;20710;-71
2021/12/24 04:30:08;;;;;;;12.55;6.50;;;6.80;99.90;;;;;;5060310;28;20019;-72
2021/12/24 04:32:50;;;;;;;12.30;5.65;;;6.80;99.90;;;;;;5068244;28;20008;-72
2021/12/24 04:38:09;;;;;;;10.27;6.18;;;6.80;99.90;;;;;;5059416;28;20023;-72
2021/12/24 04:51:42;;;;;;;9.98;5.90;;;6.90;99.90;;;;;;5064928;28;20031;-72
2021/12/24 05:05:45;;;;;;;11.07;6.75;;;7.00;99.90;;;;;;5058712;28;20160;-72
2021/12/24 05:10:20;;;;;;;14.00;6.80;;;7.00;99.90;;;;;;5064639;28;19993;-72
2021/12/24 05:12:48;;;;;;;14.30;7.00;;;6.90;99.90;;;;;;5064403;28;20097;-72
2021/12/24 05:15:17;;;;;;;12.85;6.47;;;6.90;99.90;;;;;;5059139;28;20599;-72
2021/12/24 05:23:00;;;;;;;11.65;6.97;;;6.80;99.90;;;;;;5058840;28;20031;-72
2021/12/24 05:25:25;;;;;;;11.68;5.90;;;6.80;99.90;;;;;;5062620;28;20107;-72
2021/12/24 05:27:52;;;;;;;12.03;6.93;;;6.80;99.90;;;;;;5058446;28;20524;-72
2021/12/24 05:30:19;;;;;;;9.65;5.95;;;6.90;99.90;;;;;;5063370;28;20028;-72
2021/12/24 05:32:52;;;;;;;10.15;5.85;;;6.90;99.90;;;;;;5060571;28;20490;-72
2021/12/24 05:35:19;;;;;;;9.40;6.00;;;6.90;99.90;;;;;;5062533;28;20034;-72
2021/12/24 05:37:44;;;;;;;;;;;7.00;99.90;;;;;;5059049;28;20032;-72
2021/12/24 05:40:10;;;;;;;10.43;5.72;;;7.00;99.90;;;;;;5067505;28;19911;-72
2021/12/24 05:42:41;;;;;;;11.93;6.60;;;7.10;99.90;;;;;;5061096;28;20028;-72
2021/12/24 05:45:07;;;;;;;10.75;5.60;;;7.10;99.90;;;;;;5068049;28;20024;-72
2021/12/24 05:47:34;;;;;;;13.30;5.75;;;7.20;99.90;;;;;;5061995;28;20374;-72
2021/12/24 05:50:00;;;;;;;9.32;4.90;;;7.30;99.90;;;;;;5057133;28;20024;-72
2021/12/24 05:52:27;;;;;;;9.88;5.10;;;7.40;99.90;;;;;;5056293;28;20013;-73
2021/12/24 05:54:53;;;;;;;9.88;5.15;;;7.50;99.90;;;;;;5065651;28;20034;-72
2021/12/24 05:57:19;;;;;;;11.50;4.97;;;7.50;99.90;;;;;;5064520;28;20377;-72
2021/12/24 05:59:44;;;;;;;8.10;4.73;;;7.70;99.90;;;;;;5060554;28;20078;-72
2021/12/24 06:02:10;;;;;;;7.63;4.50;;;7.70;99.90;;;;;;5069645;28;20632;-72
2021/12/24 06:04:37;;;;;;;7.80;4.53;;;7.80;99.90;;;;;;5060399;28;20031;-72
2021/12/24 06:07:06;;;;;;;9.48;4.65;;;7.80;99.90;;;;;;5063775;28;20054;-72
2021/12/24 06:09:32;;;;;;;9.20;4.28;;;7.90;99.90;;;;;;5057919;28;20025;-72
2021/12/24 06:11:58;;;;;;;9.07;4.57;;;8.00;99.90;;;;;;5064091;28;20035;-72
2021/12/24 06:14:24;;;;;;;7.43;4.18;;;8.10;99.90;;;;;;5063182;28;20147;-72
2021/12/24 06:17:01;;;;;;;7.93;4.73;;;8.10;99.90;;;;;;5065388;28;21067;-72
2021/12/24 06:19:29;;;;;;;7.47;4.40;;;8.10;99.90;;;;;;5057818;28;20537;-72
2021/12/24 06:21:58;;;;;;;7.03;4.38;;;8.10;99.90;;;;;;5066854;28;20024;-72
2021/12/24 06:24:24;;;;;;;7.28;4.40;;;8.10;99.90;;;;;;5065800;28;20016;-72
2021/12/24 06:26:51;;;;;;;8.87;5.30;;;8.20;99.90;;;;;;5065276;28;20024;-72
2021/12/24 06:29:23;;;;;;;;;;;8.20;99.90;;;;;;5068821;28;20115;-72
2021/12/24 06:31:49;;;;;;;8.85;4.07;;;8.20;99.90;;;;;;5057077;28;19961;-72
2021/12/24 06:34:16;;;;;;;7.68;4.47;;;8.20;99.90;;;;;;5060334;28;20476;-71
2021/12/24 06:36:46;;;;;;;7.90;4.13;;;8.20;99.90;;;;;;5064889;28;20016;-73
2021/12/24 06:39:15;;;;;;;6.18;3.75;;;8.20;99.90;;;;;;5054114;28;20044;-71
2021/12/24 06:41:41;;;;;;;7.00;4.20;;;8.30;99.90;;;;;;5063619;28;20512;-72
2021/12/24 06:44:11;;;;;;;8.60;4.05;;;8.30;99.90;;;;;;5062014;28;20035;-72
2021/12/24 06:46:38;;;;;;;7.13;4.55;;;8.30;99.90;;;;;;5063530;28;20028;-72
2021/12/24 06:49:04;;;;;;;;;;;8.30;99.90;;;;;;5062588;28;20023;-72
2021/12/24 06:51:30;;;;;;;5.63;3.20;;;8.30;99.90;;;;;;5063671;28;19908;-71
2021/12/24 06:53:57;;;;;;;5.97;4.07;;;8.30;99.90;;;;;;5058812;28;20047;-72
2021/12/24 06:56:22;;;;;;;4.93;2.97;;;8.30;99.90;;;;;;5062037;28;20113;-72
2021/12/24 06:58:49;;;;;;;5.50;3.20;;;8.30;99.90;;;;;;5066090;28;20822;-73
2021/12/24 07:01:15;;;;;;;5.75;3.33;;;8.40;99.90;;;;;;5059112;28;20247;-72
2021/12/24 07:03:43;;;;;;;5.22;3.20;;;8.50;99.90;;;;;;5063057;28;20119;-71
2021/12/24 07:06:11;;;;;;;6.32;3.08;;;8.60;99.90;;;;;;5060076;28;20024;-74
2021/12/24 07:08:44;;;;;;;3.47;2.35;;;8.70;99.90;;;;;;5064394;28;20052;-74
2021/12/24 07:11:11;;;;;;;4.05;2.67;;;8.80;99.90;;;;;;5060774;28;20096;-72
2021/12/24 07:13:37;;;;;;;3.88;2.58;;;8.80;99.90;;;;;;5066425;28;20036;-73
2021/12/24 07:16:02;;;;;;;4.43;2.43;;;9.00;99.90;;;;;;5059082;28;20040;-74
2021/12/24 07:18:28;;;;;;;3.85;2.40;;;9.10;99.90;;;;;;5067117;28;20029;-74
2021/12/24 07:21:03;;;;;;;5.20;2.50;;;9.10;99.90;;;;;;5066646;28;20396;-73
2021/12/24 07:23:36;;;;;;;5.70;2.47;;;9.20;99.90;;;;;;5065427;28;20020;-73
2021/12/24 07:26:04;;;;;;;3.70;2.45;;;9.20;99.90;;;;;;5057221;28;20147;-73
2021/12/24 07:28:31;;;;;;;3.70;2.55;;;9.30;99.90;;;;;;5064181;28;20107;-73
2021/12/24 07:30:59;;;;;;;;;;;9.40;99.90;;;;;;5060889;28;20055;-74
2021/12/24 07:33:26;;;;;;;5.35;2.67;;;9.40;99.90;;;;;;5066051;28;19915;-73
2021/12/24 07:35:52;;;;;;;3.83;2.30;;;9.50;99.90;;;;;;5059348;28;20572;-73
2021/12/24 07:38:17;;;;;;;3.87;2.03;;;9.50;99.90;;;;;;5058746;28;20041;-73
2021/12/24 07:40:47;;;;;;;4.73;2.20;;;9.60;99.90;;;;;;5064568;28;20036;-72
2021/12/24 07:43:22;;;;;;;3.83;2.22;;;9.70;99.90;;;;;;5061976;28;20051;-73
2021/12/24 07:45:51;;;;;;;2.20;1.85;;;9.70;99.90;;;;;;5061833;28;20032;-73
2021/12/24 07:48:26;;;;;;;4.75;1.95;;;9.70;99.90;;;;;;5058126;28;20090;-73
2021/12/24 12:17:53;;;;;;;2.75;1.85;;;12.50;98.10;;;;;;5037677;28;20992;-69
2021/12/24 12:20:43;;;;;;;3.55;1.90;;;10.90;98.30;;;;;;5034822;28;20032;-69
2021/12/24 12:23:15;;;;;;;2.25;1.60;;;10.80;98.50;;;;;;5037505;28;20018;-70
2021/12/24 12:25:42;;;;;;;2.10;1.60;;;10.80;98.80;;;;;;5029488;28;20026;-70
2021/12/24 12:28:16;;;;;;;2.00;1.63;;;10.70;98.90;;;;;;5037771;28;20029;-70
2021/12/24 12:30:52;;;;;;;3.08;2.05;;;10.70;99.00;;;;;;5030217;28;20021;-70
2021/12/24 12:33:19;;;;;;;3.58;2.10;;;10.70;99.10;;;;;;5033382;28;20025;-70
2021/12/24 12:35:46;;;;;;;1.52;1.40;;;10.60;98.80;;;;;;5034133;28;20021;-70
2021/12/24 12:38:35;;;;;;;2.58;1.83;;;10.50;99.40;;;;;;5035105;28;20093;-70
2021/12/24 12:41:19;;;;;;;4.85;2.00;;;10.50;99.50;;;;;;5039056;28;20025;-70
2021/12/24 12:43:47;;;;;;;3.50;2.00;;;10.40;99.80;;;;;;5037380;28;20075;-71
2021/12/24 12:46:39;;;;;;;3.03;1.90;;;10.40;99.90;;;;;;5042478;28;20123;-71
2021/12/24 12:49:07;;;;;;;2.47;1.88;;;10.40;99.90;;;;;;5035804;28;20052;-71
2021/12/24 12:51:58;;;;;;;3.03;1.98;;;10.40;99.90;;;;;;5029417;28;21412;-71
2021/12/24 12:54:36;;;;;;;2.67;1.88;;;10.30;99.90;;;;;;5030920;28;20354;-71
2021/12/24 12:57:14;;;;;;;2.35;1.60;;;10.30;99.90;;;;;;5041947;28;20028;-71
2021/12/24 13:00:01;;;;;;;2.97;1.70;;;10.20;99.90;;;;;;5034997;28;20031;-71
2021/12/24 13:03:06;;;;;;;1.55;1.40;;;10.30;99.90;;;;;;5038950;28;20672;-71
2021/12/24 13:05:33;;;;;;;2.25;1.60;;;10.20;99.90;;;;;;5031992;28;20041;-71
2021/12/24 13:08:13;;;;;;;1.95;1.65;;;10.20;99.90;;;;;;5040092;28;20021;-70
2021/12/24 13:10:39;;;;;;;1.58;1.45;;;10.10;99.90;;;;;;5011545;28;20810;-71
2021/12/24 13:13:06;;;;;;;1.60;1.30;;;10.10;99.90;;;;;;5016845;28;20029;-71
2021/12/24 13:15:46;;;;;;;3.90;1.40;;;10.10;99.90;;;;;;5017164;28;20084;-71
2021/12/24 13:18:30;;;;;;;2.67;1.52;;;10.10;99.90;;;;;;5017747;28;20106;-71
2021/12/24 13:23:34;;;;;;;2.10;1.40;;;10.20;99.90;;;;;;5014700;28;20029;-71
2021/12/24 13:26:17;;;;;;;2.35;1.88;;;10.20;99.90;;;;;;5021009;28;20017;-71
2021/12/24 13:29:06;;;;;;;3.63;1.60;;;10.10;99.90;;;;;;5001305;28;20101;-70
2021/12/24 13:31:31;;;;;;;4.38;2.05;;;10.10;99.90;;;;;;5005250;28;20520;-70
2021/12/24 13:33:58;;;;;;;5.17;1.50;;;10.10;99.90;;;;;;5005514;28;20034;-70
2021/12/24 13:36:28;;;;;;;3.25;1.92;;;10.10;99.90;;;;;;5005586;28;20428;-68
2021/12/24 13:39:26;;;;;;;4.40;1.55;;;10.10;99.90;;;;;;5011935;28;20088;-82
2021/12/24 13:42:07;;;;;;;;;;;10.20;99.90;;;;;;5038666;28;20018;-83
2021/12/24 13:44:38;;;;;;;5.88;1.95;;;10.60;99.60;;;;;;5026799;28;19949;-75
2021/12/24 13:47:27;;;;;;;3.78;2.17;;;10.70;99.50;;;;;;5010849;28;20052;-76
2021/12/24 13:55:25;;;;;;;2.20;1.25;;;10.90;99.10;;;;;;5004852;28;20029;-71
2021/12/24 13:57:54;;;;;;;2.25;1.77;;;10.90;99.20;;;;;;5010748;28;20316;-71
2021/12/24 14:00:20;;;;;;;2.08;1.80;;;10.80;98.60;;;;;;5005877;28;20022;-71
2021/12/24 14:02:59;;;;;;;2.47;2.17;;;10.50;99.30;;;;;;4996111;28;20014;-71
2021/12/24 14:05:25;;;;;;;1.90;1.63;;;10.30;99.90;;;;;;5003486;28;20049;-72
2021/12/24 14:08:08;;;;;;;;;;;10.10;99.90;;;;;;5009553;28;20061;-72
2021/12/24 14:10:35;;;;;;;3.53;2.17;;;10.10;99.90;;;;;;4999298;28;19913;-72
2021/12/24 14:13:25;;;;;;;2.92;1.98;;;10.00;99.90;;;;;;5005119;28;20036;-73
2021/12/24 14:16:10;;;;;;;2.97;2.00;;;10.00;99.90;;;;;;5000069;28;20025;-72
2021/12/24 14:24:19;;;;;;;4.40;2.03;;;9.80;99.90;;;;;;5006275;28;20033;-72
2021/12/24 14:26:57;;;;;;;2.78;1.75;;;9.80;99.90;;;;;;5000297;28;20018;-72
2021/12/24 14:29:33;;;;;;;3.55;1.92;;;9.70;99.90;;;;;;5004728;28;20028;-72
2021/12/24 14:32:12;;;;;;;2.70;1.73;;;9.70;99.90;;;;;;5003096;28;20065;-72
2021/12/24 14:34:56;;;;;;;2.13;1.90;;;9.60;99.90;;;;;;5001670;28;20029;-72
2021/12/24 14:37:36;;;;;;;2.35;1.90;;;9.60;99.90;;;;;;5004458;28;20029;-72
2021/12/24 14:40:14;;;;;;;2.97;1.98;;;9.60;99.90;;;;;;4998020;28;20099;-72
2021/12/24 14:42:47;;;;;;;3.67;2.20;;;9.50;99.90;;;;;;5005104;28;20017;-72
2021/12/24 14:45:20;;;;;;;3.70;2.63;;;9.50;99.90;;;;;;4996807;28;20026;-72
2021/12/24 14:48:02;;;;;;;2.95;1.83;;;9.50;99.90;;;;;;5000436;28;20018;-72
2021/12/24 14:50:31;;;;;;;2.28;1.75;;;9.50;99.90;;;;;;5007501;28;20710;-72
2021/12/24 14:53:09;;;;;;;3.58;1.67;;;9.40;99.90;;;;;;4998586;28;20076;-72
2021/12/24 14:55:44;;;;;;;3.67;1.80;;;9.40;99.90;;;;;;5007410;28;20030;-72
2021/12/24 14:58:13;;;;;;;2.47;2.08;;;9.50;99.90;;;;;;5000454;28;20578;-72
2021/12/24 15:00:46;;;;;;;2.30;1.63;;;9.50;99.90;;;;;;5010131;28;20490;-72
2021/12/24 15:03:16;;;;;;;1.92;1.50;;;9.40;99.90;;;;;;4998504;28;20028;-72
2021/12/24 15:05:45;;;;;;;2.17;1.80;;;9.50;99.90;;;;;;5005681;28;20583;-72
2021/12/24 15:08:34;;;;;;;1.98;1.70;;;9.50;99.90;;;;;;4996223;28;20025;-72
2021/12/24 15:11:08;;;;;;;2.85;1.60;;;9.50;99.90;;;;;;4997680;28;20534;-73
2021/12/24 15:13:38;;;;;;;2.35;1.45;;;9.50;99.90;;;;;;5003419;28;20040;-72
2021/12/24 15:16:05;;;;;;;2.10;1.67;;;9.50;99.90;;;;;;4996632;28;20030;-72
2021/12/24 15:18:31;;;;;;;3.25;1.73;;;9.40;99.90;;;;;;5008907;28;20038;-71
2021/12/24 15:20:58;;;;;;;2.47;1.48;;;9.50;99.90;;;;;;5001503;28;20030;-72
2021/12/24 15:23:25;;;;;;;2.55;1.38;;;9.50;99.90;;;;;;5005143;28;20025;-72
2021/12/24 15:25:51;;;;;;;2.17;1.50;;;9.50;99.90;;;;;;5005148;28;20530;-72
2021/12/24 15:28:23;;;;;;;2.33;1.57;;;9.40;99.90;;;;;;5005756;28;20044;-72
2021/12/24 15:30:50;;;;;;;4.30;1.98;;;9.40;99.90;;;;;;5008912;28;20041;-72
2021/12/24 15:33:21;;;;;;;1.92;1.60;;;9.40;99.90;;;;;;4997506;28;20029;-72
2021/12/24 15:35:48;;;;;;;2.33;1.70;;;9.30;99.90;;;;;;5004437;28;20036;-72
2021/12/24 15:38:16;;;;;;;1.40;1.27;;;9.30;99.90;;;;;;4993745;28;20017;-72
2021/12/24 15:40:42;;;;;;;1.60;1.38;;;9.30;99.90;;;;;;5009052;28;20043;-72
2021/12/24 15:43:09;;;;;;;2.22;1.55;;;9.30;99.90;;;;;;4997987;28;20014;-72
2021/12/24 15:45:36;;;;;;;2.00;1.55;;;9.30;99.90;;;;;;5006985;28;20110;-72
2021/12/24 15:48:04;;;;;;;2.13;1.55;;;9.20;99.90;;;;;;4998209;28;20048;-72
2021/12/24 15:50:30;;;;;;;2.78;1.65;;;9.30;99.90;;;;;;5004909;28;20037;-71
2021/12/24 15:52:55;;;;;;;2.10;1.50;;;9.20;99.90;;;;;;5000720;28;20021;-72
2021/12/24 15:55:21;;;;;;;2.60;1.47;;;9.20;99.90;;;;;;5005108;28;20029;-72
2021/12/24 15:57:48;;;;;;;1.73;1.60;;;9.30;99.90;;;;;;4997720;28;20488;-72
2021/12/24 16:00:14;;;;;;;;;;;9.30;99.90;;;;;;4999777;28;20339;-71
2021/12/24 16:02:40;;;;;;;2.33;1.70;;;9.20;99.90;;;;;;5004506;28;20520;-72
2021/12/24 16:05:06;;;;;;;2.77;1.67;;;9.20;99.90;;;;;;5006610;28;20442;-71
2021/12/24 16:07:32;;;;;;;2.35;1.63;;;9.30;99.90;;;;;;5004584;28;20123;-71
2021/12/24 16:09:58;;;;;;;;;;;9.30;99.90;;;;;;4997232;28;20026;-72
2021/12/24 16:12:26;;;;;;;2.55;1.75;;;9.40;99.90;;;;;;5005648;28;19947;-72
2021/12/24 16:14:53;;;;;;;1.90;1.60;;;9.30;99.90;;;;;;5002730;28;20041;-72
2021/12/24 16:17:18;;;;;;;3.50;1.73;;;9.30;99.90;;;;;;5003062;28;20056;-72
2021/12/24 16:19:44;;;;;;;2.40;1.70;;;9.30;99.90;;;;;;5006992;28;20021;-72
2021/12/24 16:22:12;;;;;;;3.40;1.87;;;9.20;99.90;;;;;;5000933;28;20100;-72
2021/12/24 16:24:37;;;;;;;2.55;1.80;;;9.10;99.90;;;;;;5013591;28;20394;-72
2021/12/24 16:27:04;;;;;;;2.23;1.57;;;9.10;99.90;;;;;;4999068;28;20032;-72
2021/12/24 16:29:57;;;;;;;2.65;2.00;;;9.10;99.90;;;;;;5003607;28;20025;-72
2021/12/24 16:32:28;;;;;;;2.33;1.95;;;9.10;99.90;;;;;;4999262;28;20464;-72
2021/12/24 16:34:55;;;;;;;2.22;1.63;;;9.10;99.90;;;;;;5009950;28;20029;-72
2021/12/24 16:37:21;;;;;;;;;;;9.10;99.90;;;;;;4995331;28;20037;-72
2021/12/24 16:39:48;;;;;;;2.83;1.60;;;9.20;99.90;;;;;;4999308;28;19909;-71
2021/12/24 16:42:17;;;;;;;2.20;1.50;;;9.20;99.90;;;;;;5001630;28;20634;-72
2021/12/24 16:44:44;;;;;;;1.70;1.27;;;9.20;99.90;;;;;;5002846;28;20026;-71
2021/12/24 16:47:11;;;;;;;3.85;1.45;;;9.30;99.90;;;;;;4996824;28;20029;-72
2021/12/24 16:49:38;;;;;;;1.75;1.23;;;9.30;99.90;;;;;;5001829;28;20088;-72
2021/12/24 16:52:05;;;;;;;2.45;1.70;;;9.30;99.90;;;;;;5000868;28;20574;-72
2021/12/24 16:54:35;;;;;;;2.05;1.73;;;9.30;99.90;;;;;;5002960;28;20651;-72
2021/12/24 16:57:00;;;;;;;2.05;1.70;;;9.30;99.90;;;;;;4993122;28;20048;-72
2021/12/24 16:59:27;;;;;;;2.83;1.80;;;9.30;99.90;;;;;;4999360;28;20022;-71
2021/12/24 17:01:53;;;;;;;5.93;2.10;;;9.30;99.90;;;;;;5003119;28;20036;-72
2021/12/24 17:04:20;;;;;;;2.75;1.60;;;9.30;99.90;;;;;;4999196;28;20026;-72
2021/12/24 17:06:48;;;;;;;;;;;9.30;99.90;;;;;;5005258;28;20022;-72
2021/12/24 17:09:14;;;;;;;1.55;1.40;;;9.30;99.90;;;;;;5001545;28;20007;-71
2021/12/24 17:11:40;;;;;;;2.43;1.60;;;9.30;99.90;;;;;;5005643;28;20813;-72
2021/12/24 17:14:07;;;;;;;2.30;1.60;;;9.30;99.90;;;;;;5007235;28;20271;-72
2021/12/24 17:16:32;;;;;;;;;;;9.30;99.90;;;;;;5012218;28;20136;-71
2021/12/24 17:18:59;;;;;;;2.47;1.40;;;9.20;99.90;;;;;;5010372;28;19992;-71
2021/12/24 17:21:25;;;;;;;3.28;2.17;;;9.20;99.90;;;;;;5000314;28;20068;-71
2021/12/24 17:23:51;;;;;;;2.33;2.03;;;9.20;99.90;;;;;;5002873;28;20499;-72
2021/12/24 17:26:18;;;;;;;2.65;1.85;;;9.20;99.90;;;;;;5000029;28;20068;-72
2021/12/24 17:28:48;;;;;;;2.30;1.60;;;9.20;99.90;;;;;;4999494;28;20395;-71
2021/12/24 17:31:16;;;;;;;1.85;1.60;;;9.20;99.90;;;;;;5003837;28;20557;-72
2021/12/24 17:33:42;;;;;;;2.80;1.67;;;9.20;99.90;;;;;;4998452;28;20559;-72
2021/12/24 17:36:10;;;;;;;2.87;2.10;;;9.10;99.90;;;;;;5002196;28;20032;-72
2021/12/24 17:38:37;;;;;;;3.70;2.15;;;9.10;99.90;;;;;;5000453;28;20022;-72
2021/12/24 17:41:04;;;;;;;4.05;1.65;;;9.10;99.90;;;;;;5002617;28;20302;-71
2021/12/24 17:43:30;;;;;;;4.10;2.17;;;9.20;99.90;;;;;;5005251;28;20740;-72
2021/12/24 17:45:57;;;;;;;2.17;1.67;;;9.20;99.90;;;;;;5003766;28;20052;-72
2021/12/24 17:48:22;;;;;;;3.50;2.30;;;9.20;99.90;;;;;;5007554;28;21016;-72
2021/12/24 17:50:48;;;;;;;4.43;2.00;;;9.20;99.90;;;;;;5005312;28;20022;-71
2021/12/24 17:53:15;;;;;;;2.10;1.50;;;9.20;99.90;;;;;;5001403;28;20029;-72
2021/12/24 17:55:42;;;;;;;2.88;1.92;;;9.20;99.90;;;;;;5007950;28;20025;-72
2021/12/24 18:01:34;;;;;;;2.13;1.70;;;9.10;99.90;;;;;;5009045;28;20106;-72
2021/12/24 18:04:00;;;;;;;3.67;1.88;;;9.10;99.90;;;;;;5001038;28;20029;-72
2021/12/24 18:06:26;;;;;;;2.88;1.85;;;9.10;99.90;;;;;;5002495;28;20572;-72
2021/12/24 18:08:54;;;;;;;2.20;1.70;;;9.10;99.90;;;;;;5004796;28;20026;-72
2021/12/24 18:11:20;;;;;;;4.57;1.73;;;9.00;99.90;;;;;;5000774;28;20017;-71
2021/12/24 18:13:50;;;;;;;;;;;9.10;99.90;;;;;;5004274;28;20112;-72
2021/12/24 18:16:16;;;;;;;2.80;1.50;;;9.00;99.90;;;;;;4997226;28;20055;-72
2021/12/24 18:18:44;;;;;;;2.92;2.13;;;9.00;99.90;;;;;;5001257;28;20037;-72
2021/12/24 18:21:11;;;;;;;2.60;1.73;;;9.00;99.90;;;;;;4998728;28;20049;-72
2021/12/24 18:23:38;;;;;;;1.90;1.70;;;9.00;99.90;;;;;;5002130;28;20100;-72
2021/12/24 18:26:09;;;;;;;2.70;1.67;;;9.10;99.90;;;;;;5001679;28;20639;-72
2021/12/24 18:28:34;;;;;;;2.13;1.80;;;9.00;99.90;;;;;;5004618;28;20037;-72
2021/12/24 18:31:02;;;;;;;2.83;1.90;;;9.00;99.90;;;;;;5007253;28;20532;-72
2021/12/24 18:33:29;;;;;;;2.90;2.20;;;9.00;99.90;;;;;;5004638;28;20042;-72
2021/12/24 18:35:56;;;;;;;2.40;1.85;;;9.00;99.90;;;;;;5002474;28;20022;-72
2021/12/24 18:38:21;;;;;;;;;;;9.00;99.90;;;;;;4998259;28;20609;-72
2021/12/24 18:40:51;;;;;;;1.67;1.40;;;9.00;99.90;;;;;;4989835;28;19989;-71
2021/12/24 18:43:20;;;;;;;2.78;1.70;;;9.00;99.90;;;;;;5003763;28;20303;-72
2021/12/24 18:45:48;;;;;;;2.38;1.75;;;9.00;99.90;;;;;;5001568;28;20741;-71
2021/12/24 18:48:16;;;;;;;1.98;1.60;;;8.90;99.90;;;;;;4998944;28;20030;-71
2021/12/24 18:50:44;;;;;;;2.10;1.50;;;8.90;99.90;;;;;;4999162;28;20026;-72
2021/12/24 18:53:11;;;;;;;2.30;2.10;;;8.90;99.90;;;;;;5002871;28;20025;-71
2021/12/24 18:55:38;;;;;;;2.58;1.60;;;8.90;99.90;;;;;;4995494;28;20029;-72
2021/12/24 18:58:04;;;;;;;1.48;1.33;;;8.90;99.90;;;;;;5006131;28;20187;-71
2021/12/24 19:00:32;;;;;;;1.45;1.23;;;8.90;99.90;;;;;;5002081;28;20133;-71
2021/12/24 19:02:59;;;;;;;1.70;1.40;;;8.90;99.90;;;;;;5006431;28;20076;-72
2021/12/24 19:05:26;;;;;;;1.50;1.40;;;8.90;99.90;;;;;;5005658;28;20028;-71
2021/12/24 19:07:55;;;;;;;1.90;1.30;;;8.90;99.90;;;;;;4997474;28;20845;-72
2021/12/24 19:10:20;;;;;;;2.90;1.40;;;8.90;99.90;;;;;;5002814;28;20026;-72
2021/12/24 19:12:47;;;;;;;3.07;1.73;;;8.90;99.90;;;;;;5005782;28;20473;-72
2021/12/24 19:15:14;;;;;;;4.30;1.50;;;8.90;99.90;;;;;;5005570;28;20021;-72
2021/12/24 19:17:40;;;;;;;1.80;1.23;;;8.90;99.90;;;;;;5005644;28;20786;-72
2021/12/24 19:20:07;;;;;;;1.77;1.15;;;9.00;99.90;;;;;;5005204;28;20036;-71
2021/12/24 19:22:34;;;;;;;1.20;1.10;;;8.90;99.90;;;;;;5006460;28;20103;-72
2021/12/24 19:25:01;;;;;;;1.30;1.05;;;9.00;99.90;;;;;;5001196;28;20056;-72
2021/12/24 19:27:26;;;;;;;2.25;1.25;;;9.00;99.90;;;;;;5001389;28;20030;-72
2021/12/24 19:29:53;;;;;;;1.20;1.10;;;9.00;99.90;;;;;;5004327;28;20032;-71